sensor_id;sensor_type;location;lat;lon;timestamp;P1;durP1;ratioP1;P2;durP2;ratioP2
71464;SDS011;59274;49.874;9.154;2023-06-19T00:00:26;7.53;;;4.35;;
71464;SDS011;59274;49.874;9.154;2023-06-19T00:02:52;8.60;;;3.70;;
71464;SDS011;59274;49.874;9.154;2023-06-19T00:05:17;7.23;;;3.90;;
71464;SDS011;59274;49.874;9.154;2023-06-19T00:07:43;7.10;;;3.50;;
71464;SDS011;59274;49.874;9.154;2023-06-19T00:10:08;8.27;;;4.10;;
71464;SDS011;59274;49.874;9.154;2023-06-19T00:12:34;9.07;;;5.05;;
71464;SDS011;59274;49.874;9.154;2023-06-19T00:14:59;7.90;;;4.27;;
71464;SDS011;59274;49.874;9.154;2023-06-19T00:17:25;9.23;;;4.83;;
71464;SDS011;59274;49.874;9.154;2023-06-19T00:19:52;8.52;;;4.25;;
71464;SDS011;59274;49.874;9.154;2023-06-19T00:22:18;7.38;;;4.18;;
71464;SDS011;59274;49.874;9.154;2023-06-19T00:24:43;8.20;;;4.43;;
71464;SDS011;59274;49.874;9.154;2023-06-19T00:27:09;8.02;;;4.55;;
71464;SDS011;59274;49.874;9.154;2023-06-19T00:29:34;9.70;;;4.83;;
71464;SDS011;59274;49.874;9.154;2023-06-19T00:32:00;8.90;;;4.80;;
71464;SDS011;59274;49.874;9.154;2023-06-19T00:34:25;8.53;;;4.63;;
71464;SDS011;59274;49.874;9.154;2023-06-19T00:36:53;9.13;;;5.03;;
71464;SDS011;59274;49.874;9.154;2023-06-19T00:39:24;10.85;;;5.47;;
71464;SDS011;59274;49.874;9.154;2023-06-19T00:41:53;8.90;;;4.78;;
71464;SDS011;59274;49.874;9.154;2023-06-19T00:44:19;8.75;;;4.93;;
71464;SDS011;59274;49.874;9.154;2023-06-19T00:46:45;8.70;;;4.63;;
71464;SDS011;59274;49.874;9.154;2023-06-19T00:49:10;8.60;;;4.70;;
71464;SDS011;59274;49.874;9.154;2023-06-19T00:51:37;9.07;;;4.72;;
71464;SDS011;59274;49.874;9.154;2023-06-19T00:54:03;9.35;;;4.60;;
71464;SDS011;59274;49.874;9.154;2023-06-19T00:56:29;10.00;;;4.88;;
71464;SDS011;59274;49.874;9.154;2023-06-19T00:58:55;8.52;;;4.45;;
71464;SDS011;59274;49.874;9.154;2023-06-19T01:01:21;8.57;;;4.72;;
71464;SDS011;59274;49.874;9.154;2023-06-19T01:03:49;8.70;;;4.93;;
71464;SDS011;59274;49.874;9.154;2023-06-19T01:06:22;8.13;;;4.38;;
71464;SDS011;59274;49.874;9.154;2023-06-19T01:11:27;7.72;;;4.18;;
71464;SDS011;59274;49.874;9.154;2023-06-19T01:13:59;8.43;;;4.30;;
71464;SDS011;59274;49.874;9.154;2023-06-19T01:16:31;9.35;;;4.80;;
71464;SDS011;59274;49.874;9.154;2023-06-19T01:18:57;9.68;;;5.03;;
71464;SDS011;59274;49.874;9.154;2023-06-19T01:21:23;9.10;;;4.57;;
71464;SDS011;59274;49.874;9.154;2023-06-19T01:23:48;7.13;;;4.03;;
71464;SDS011;59274;49.874;9.154;2023-06-19T01:26:15;8.10;;;4.63;;
71464;SDS011;59274;49.874;9.154;2023-06-19T01:28:41;7.57;;;4.10;;
71464;SDS011;59274;49.874;9.154;2023-06-19T01:31:11;7.43;;;4.20;;
71464;SDS011;59274;49.874;9.154;2023-06-19T01:33:40;8.18;;;4.30;;
71464;SDS011;59274;49.874;9.154;2023-06-19T01:36:08;8.45;;;4.30;;
71464;SDS011;59274;49.874;9.154;2023-06-19T01:38:35;8.57;;;4.75;;
71464;SDS011;59274;49.874;9.154;2023-06-19T01:41:02;7.83;;;4.20;;
71464;SDS011;59274;49.874;9.154;2023-06-19T01:43:30;8.05;;;4.03;;
71464;SDS011;59274;49.874;9.154;2023-06-19T01:45:56;9.13;;;4.63;;
71464;SDS011;59274;49.874;9.154;2023-06-19T01:48:23;7.63;;;4.15;;
71464;SDS011;59274;49.874;9.154;2023-06-19T01:50:49;9.23;;;4.63;;
71464;SDS011;59274;49.874;9.154;2023-06-19T01:53:15;10.23;;;4.78;;
71464;SDS011;59274;49.874;9.154;2023-06-19T01:55:41;8.48;;;4.78;;
71464;SDS011;59274;49.874;9.154;2023-06-19T01:58:08;8.93;;;4.82;;
71464;SDS011;59274;49.874;9.154;2023-06-19T02:00:33;10.57;;;4.70;;
71464;SDS011;59274;49.874;9.154;2023-06-19T02:03:02;8.55;;;4.68;;
71464;SDS011;59274;49.874;9.154;2023-06-19T02:05:28;8.52;;;4.95;;
71464;SDS011;59274;49.874;9.154;2023-06-19T02:07:55;10.57;;;4.82;;
71464;SDS011;59274;49.874;9.154;2023-06-19T02:10:20;10.73;;;4.85;;
71464;SDS011;59274;49.874;9.154;2023-06-19T02:12:46;9.20;;;4.80;;
71464;SDS011;59274;49.874;9.154;2023-06-19T02:15:11;7.93;;;4.30;;
71464;SDS011;59274;49.874;9.154;2023-06-19T02:17:36;9.30;;;4.77;;
71464;SDS011;59274;49.874;9.154;2023-06-19T02:20:02;9.07;;;5.07;;
71464;SDS011;59274;49.874;9.154;2023-06-19T02:22:30;11.75;;;5.22;;
71464;SDS011;59274;49.874;9.154;2023-06-19T02:24:56;9.03;;;4.70;;
71464;SDS011;59274;49.874;9.154;2023-06-19T02:27:21;9.60;;;4.55;;
71464;SDS011;59274;49.874;9.154;2023-06-19T02:29:46;8.15;;;4.20;;
71464;SDS011;59274;49.874;9.154;2023-06-19T02:32:12;9.03;;;4.30;;
71464;SDS011;59274;49.874;9.154;2023-06-19T02:34:37;9.67;;;4.73;;
71464;SDS011;59274;49.874;9.154;2023-06-19T02:37:03;9.65;;;4.75;;
71464;SDS011;59274;49.874;9.154;2023-06-19T02:39:29;8.70;;;4.80;;
71464;SDS011;59274;49.874;9.154;2023-06-19T02:41:54;8.05;;;4.13;;
71464;SDS011;59274;49.874;9.154;2023-06-19T02:44:19;7.93;;;4.30;;
71464;SDS011;59274;49.874;9.154;2023-06-19T02:46:45;8.70;;;4.40;;
71464;SDS011;59274;49.874;9.154;2023-06-19T02:49:10;10.03;;;4.33;;
71464;SDS011;59274;49.874;9.154;2023-06-19T02:51:36;10.00;;;4.10;;
71464;SDS011;59274;49.874;9.154;2023-06-19T02:54:01;8.77;;;4.50;;
71464;SDS011;59274;49.874;9.154;2023-06-19T02:56:29;8.17;;;4.63;;
71464;SDS011;59274;49.874;9.154;2023-06-19T02:58:55;8.82;;;4.53;;
71464;SDS011;59274;49.874;9.154;2023-06-19T03:01:20;9.10;;;4.75;;
71464;SDS011;59274;49.874;9.154;2023-06-19T03:03:45;8.07;;;4.43;;
71464;SDS011;59274;49.874;9.154;2023-06-19T03:06:11;7.20;;;3.90;;
71464;SDS011;59274;49.874;9.154;2023-06-19T03:08:38;7.78;;;4.05;;
71464;SDS011;59274;49.874;9.154;2023-06-19T03:11:04;10.07;;;4.20;;
71464;SDS011;59274;49.874;9.154;2023-06-19T03:16:15;10.05;;;4.80;;
71464;SDS011;59274;49.874;9.154;2023-06-19T03:18:42;10.20;;;4.80;;
71464;SDS011;59274;49.874;9.154;2023-06-19T03:21:09;9.60;;;4.47;;
71464;SDS011;59274;49.874;9.154;2023-06-19T03:23:35;8.18;;;3.97;;
71464;SDS011;59274;49.874;9.154;2023-06-19T03:26:01;10.67;;;4.30;;
71464;SDS011;59274;49.874;9.154;2023-06-19T03:28:27;9.85;;;4.47;;
71464;SDS011;59274;49.874;9.154;2023-06-19T03:30:52;8.70;;;4.37;;
71464;SDS011;59274;49.874;9.154;2023-06-19T03:33:17;8.57;;;4.20;;
71464;SDS011;59274;49.874;9.154;2023-06-19T03:35:43;10.83;;;4.80;;
71464;SDS011;59274;49.874;9.154;2023-06-19T03:38:08;7.63;;;4.43;;
71464;SDS011;59274;49.874;9.154;2023-06-19T03:40:34;8.17;;;4.20;;
71464;SDS011;59274;49.874;9.154;2023-06-19T03:42:59;9.87;;;4.40;;
71464;SDS011;59274;49.874;9.154;2023-06-19T03:45:25;8.95;;;4.68;;
71464;SDS011;59274;49.874;9.154;2023-06-19T03:47:50;10.30;;;4.78;;
71464;SDS011;59274;49.874;9.154;2023-06-19T03:50:16;7.97;;;4.43;;
71464;SDS011;59274;49.874;9.154;2023-06-19T03:52:41;12.00;;;5.00;;
71464;SDS011;59274;49.874;9.154;2023-06-19T03:55:07;8.77;;;4.40;;
71464;SDS011;59274;49.874;9.154;2023-06-19T03:57:32;8.53;;;4.20;;
71464;SDS011;59274;49.874;9.154;2023-06-19T03:59:58;9.50;;;4.03;;
71464;SDS011;59274;49.874;9.154;2023-06-19T04:02:23;8.60;;;4.18;;
71464;SDS011;59274;49.874;9.154;2023-06-19T04:04:49;8.23;;;4.23;;
71464;SDS011;59274;49.874;9.154;2023-06-19T04:07:14;7.37;;;3.83;;
71464;SDS011;59274;49.874;9.154;2023-06-19T04:09:40;8.65;;;4.32;;
71464;SDS011;59274;49.874;9.154;2023-06-19T04:12:05;8.77;;;4.10;;
71464;SDS011;59274;49.874;9.154;2023-06-19T04:14:32;7.07;;;3.85;;
71464;SDS011;59274;49.874;9.154;2023-06-19T04:16:57;8.00;;;4.33;;
71464;SDS011;59274;49.874;9.154;2023-06-19T04:19:22;8.47;;;4.47;;
71464;SDS011;59274;49.874;9.154;2023-06-19T04:21:48;7.27;;;3.93;;
71464;SDS011;59274;49.874;9.154;2023-06-19T04:24:13;9.63;;;4.40;;
71464;SDS011;59274;49.874;9.154;2023-06-19T04:26:38;9.65;;;4.68;;
71464;SDS011;59274;49.874;9.154;2023-06-19T04:29:04;7.57;;;4.10;;
71464;SDS011;59274;49.874;9.154;2023-06-19T04:31:31;8.10;;;4.55;;
71464;SDS011;59274;49.874;9.154;2023-06-19T04:34:00;7.22;;;3.90;;
71464;SDS011;59274;49.874;9.154;2023-06-19T04:36:29;7.13;;;3.97;;
71464;SDS011;59274;49.874;9.154;2023-06-19T04:38:56;7.50;;;3.88;;
71464;SDS011;59274;49.874;9.154;2023-06-19T04:41:23;8.38;;;4.03;;
71464;SDS011;59274;49.874;9.154;2023-06-19T04:43:48;6.87;;;3.83;;
71464;SDS011;59274;49.874;9.154;2023-06-19T04:46:14;8.27;;;4.20;;
71464;SDS011;59274;49.874;9.154;2023-06-19T04:48:45;8.70;;;4.40;;
71464;SDS011;59274;49.874;9.154;2023-06-19T04:51:15;6.15;;;3.70;;
71464;SDS011;59274;49.874;9.154;2023-06-19T04:53:47;8.55;;;4.05;;
71464;SDS011;59274;49.874;9.154;2023-06-19T04:56:13;8.40;;;4.60;;
71464;SDS011;59274;49.874;9.154;2023-06-19T04:58:39;9.35;;;5.22;;
71464;SDS011;59274;49.874;9.154;2023-06-19T05:01:14;9.18;;;5.05;;
71464;SDS011;59274;49.874;9.154;2023-06-19T05:03:40;10.07;;;5.30;;
71464;SDS011;59274;49.874;9.154;2023-06-19T05:06:09;9.55;;;5.32;;
71464;SDS011;59274;49.874;9.154;2023-06-19T05:08:34;10.43;;;6.07;;
71464;SDS011;59274;49.874;9.154;2023-06-19T05:11:00;11.63;;;5.43;;
71464;SDS011;59274;49.874;9.154;2023-06-19T05:13:25;10.03;;;6.33;;
71464;SDS011;59274;49.874;9.154;2023-06-19T05:15:51;11.23;;;5.75;;
71464;SDS011;59274;49.874;9.154;2023-06-19T05:18:16;10.47;;;5.67;;
71464;SDS011;59274;49.874;9.154;2023-06-19T05:20:42;10.60;;;5.97;;
71464;SDS011;59274;49.874;9.154;2023-06-19T05:23:17;10.90;;;5.35;;
71464;SDS011;59274;49.874;9.154;2023-06-19T05:25:43;9.88;;;5.32;;
71464;SDS011;59274;49.874;9.154;2023-06-19T05:28:08;8.80;;;4.70;;
71464;SDS011;59274;49.874;9.154;2023-06-19T05:30:34;9.35;;;4.72;;
71464;SDS011;59274;49.874;9.154;2023-06-19T05:33:00;9.27;;;5.17;;
71464;SDS011;59274;49.874;9.154;2023-06-19T05:35:25;9.50;;;4.25;;
71464;SDS011;59274;49.874;9.154;2023-06-19T05:37:51;7.40;;;3.90;;
71464;SDS011;59274;49.874;9.154;2023-06-19T05:40:16;7.87;;;4.27;;
71464;SDS011;59274;49.874;9.154;2023-06-19T05:42:42;8.60;;;4.18;;
71464;SDS011;59274;49.874;9.154;2023-06-19T05:45:08;7.40;;;4.10;;
71464;SDS011;59274;49.874;9.154;2023-06-19T05:47:34;7.82;;;4.50;;
71464;SDS011;59274;49.874;9.154;2023-06-19T05:49:59;6.90;;;3.77;;
71464;SDS011;59274;49.874;9.154;2023-06-19T05:52:25;8.27;;;4.28;;
71464;SDS011;59274;49.874;9.154;2023-06-19T05:54:50;7.63;;;4.00;;
71464;SDS011;59274;49.874;9.154;2023-06-19T05:57:17;9.20;;;4.10;;
71464;SDS011;59274;49.874;9.154;2023-06-19T05:59:46;7.35;;;3.90;;
71464;SDS011;59274;49.874;9.154;2023-06-19T06:02:12;7.13;;;3.65;;
71464;SDS011;59274;49.874;9.154;2023-06-19T06:04:38;7.60;;;3.58;;
71464;SDS011;59274;49.874;9.154;2023-06-19T06:07:03;5.87;;;2.57;;
71464;SDS011;59274;49.874;9.154;2023-06-19T06:09:29;8.10;;;3.60;;
71464;SDS011;59274;49.874;9.154;2023-06-19T06:11:54;6.70;;;2.90;;
71464;SDS011;59274;49.874;9.154;2023-06-19T06:14:20;5.83;;;2.77;;
71464;SDS011;59274;49.874;9.154;2023-06-19T06:16:45;5.53;;;2.53;;
71464;SDS011;59274;49.874;9.154;2023-06-19T06:19:10;4.63;;;2.47;;
71464;SDS011;59274;49.874;9.154;2023-06-19T06:21:36;5.80;;;2.30;;
71464;SDS011;59274;49.874;9.154;2023-06-19T06:24:01;4.75;;;2.35;;
71464;SDS011;59274;49.874;9.154;2023-06-19T06:26:27;5.37;;;2.43;;
71464;SDS011;59274;49.874;9.154;2023-06-19T06:28:53;5.55;;;2.40;;
71464;SDS011;59274;49.874;9.154;2023-06-19T06:31:19;5.45;;;2.50;;
71464;SDS011;59274;49.874;9.154;2023-06-19T06:33:45;5.90;;;2.60;;
71464;SDS011;59274;49.874;9.154;2023-06-19T06:36:10;4.77;;;2.30;;
71464;SDS011;59274;49.874;9.154;2023-06-19T06:38:36;4.93;;;2.37;;
71464;SDS011;59274;49.874;9.154;2023-06-19T06:41:01;5.20;;;2.38;;
71464;SDS011;59274;49.874;9.154;2023-06-19T06:43:27;5.60;;;2.53;;
71464;SDS011;59274;49.874;9.154;2023-06-19T06:45:53;6.75;;;2.70;;
71464;SDS011;59274;49.874;9.154;2023-06-19T06:48:18;5.10;;;2.50;;
71464;SDS011;59274;49.874;9.154;2023-06-19T06:50:43;4.83;;;2.20;;
71464;SDS011;59274;49.874;9.154;2023-06-19T06:53:09;5.07;;;2.30;;
71464;SDS011;59274;49.874;9.154;2023-06-19T06:55:34;5.50;;;2.03;;
71464;SDS011;59274;49.874;9.154;2023-06-19T06:58:00;5.55;;;2.20;;
71464;SDS011;59274;49.874;9.154;2023-06-19T07:00:25;6.70;;;2.77;;
71464;SDS011;59274;49.874;9.154;2023-06-19T07:02:50;4.10;;;2.23;;
71464;SDS011;59274;49.874;9.154;2023-06-19T07:05:16;5.07;;;2.40;;
71464;SDS011;59274;49.874;9.154;2023-06-19T07:07:42;3.28;;;1.73;;
71464;SDS011;59274;49.874;9.154;2023-06-19T07:10:07;6.07;;;2.50;;
71464;SDS011;59274;49.874;9.154;2023-06-19T07:12:34;5.60;;;2.22;;
71464;SDS011;59274;49.874;9.154;2023-06-19T07:14:59;4.87;;;2.27;;
71464;SDS011;59274;49.874;9.154;2023-06-19T07:17:25;5.40;;;2.40;;
71464;SDS011;59274;49.874;9.154;2023-06-19T07:19:50;5.63;;;2.13;;
71464;SDS011;59274;49.874;9.154;2023-06-19T07:22:16;3.60;;;2.00;;
71464;SDS011;59274;49.874;9.154;2023-06-19T07:24:42;7.35;;;2.53;;
71464;SDS011;59274;49.874;9.154;2023-06-19T07:27:07;4.33;;;2.07;;
71464;SDS011;59274;49.874;9.154;2023-06-19T07:29:32;5.20;;;2.53;;
71464;SDS011;59274;49.874;9.154;2023-06-19T07:31:58;4.43;;;2.20;;
71464;SDS011;59274;49.874;9.154;2023-06-19T07:34:24;5.57;;;2.70;;
71464;SDS011;59274;49.874;9.154;2023-06-19T07:36:49;4.50;;;2.10;;
71464;SDS011;59274;49.874;9.154;2023-06-19T07:39:15;4.63;;;2.25;;
71464;SDS011;59274;49.874;9.154;2023-06-19T07:41:41;5.15;;;2.20;;
71464;SDS011;59274;49.874;9.154;2023-06-19T07:44:06;4.53;;;2.40;;
71464;SDS011;59274;49.874;9.154;2023-06-19T07:46:32;4.80;;;2.37;;
71464;SDS011;59274;49.874;9.154;2023-06-19T07:48:57;4.22;;;2.30;;
71464;SDS011;59274;49.874;9.154;2023-06-19T07:51:22;4.07;;;2.30;;
71464;SDS011;59274;49.874;9.154;2023-06-19T07:53:48;6.23;;;2.77;;
71464;SDS011;59274;49.874;9.154;2023-06-19T07:56:13;5.67;;;2.43;;
71464;SDS011;59274;49.874;9.154;2023-06-19T07:58:39;5.53;;;2.53;;
71464;SDS011;59274;49.874;9.154;2023-06-19T08:01:04;5.20;;;2.50;;
71464;SDS011;59274;49.874;9.154;2023-06-19T08:03:29;6.23;;;2.90;;
71464;SDS011;59274;49.874;9.154;2023-06-19T08:05:55;5.43;;;2.60;;
71464;SDS011;59274;49.874;9.154;2023-06-19T08:08:21;4.63;;;2.30;;
71464;SDS011;59274;49.874;9.154;2023-06-19T08:10:47;4.45;;;2.40;;
71464;SDS011;59274;49.874;9.154;2023-06-19T08:13:12;7.23;;;2.63;;
71464;SDS011;59274;49.874;9.154;2023-06-19T08:15:38;4.37;;;2.43;;
71464;SDS011;59274;49.874;9.154;2023-06-19T08:18:03;6.32;;;2.60;;
71464;SDS011;59274;49.874;9.154;2023-06-19T08:20:29;6.50;;;2.80;;
71464;SDS011;59274;49.874;9.154;2023-06-19T08:22:54;5.23;;;2.60;;
71464;SDS011;59274;49.874;9.154;2023-06-19T08:25:21;4.28;;;2.35;;
71464;SDS011;59274;49.874;9.154;2023-06-19T08:27:46;6.10;;;2.67;;
71464;SDS011;59274;49.874;9.154;2023-06-19T08:30:12;6.27;;;2.60;;
71464;SDS011;59274;49.874;9.154;2023-06-19T08:32:37;4.72;;;2.65;;
71464;SDS011;59274;49.874;9.154;2023-06-19T08:35:02;4.78;;;2.45;;
71464;SDS011;59274;49.874;9.154;2023-06-19T08:37:28;4.40;;;2.23;;
71464;SDS011;59274;49.874;9.154;2023-06-19T08:39:54;4.57;;;2.28;;
71464;SDS011;59274;49.874;9.154;2023-06-19T08:42:21;6.00;;;2.80;;
71464;SDS011;59274;49.874;9.154;2023-06-19T08:44:48;5.03;;;2.30;;
71464;SDS011;59274;49.874;9.154;2023-06-19T08:47:14;6.82;;;2.70;;
71464;SDS011;59274;49.874;9.154;2023-06-19T08:49:40;4.75;;;2.42;;
71464;SDS011;59274;49.874;9.154;2023-06-19T08:52:05;5.20;;;2.28;;
71464;SDS011;59274;49.874;9.154;2023-06-19T08:54:34;6.78;;;2.58;;
71464;SDS011;59274;49.874;9.154;2023-06-19T08:57:07;5.33;;;2.57;;
71464;SDS011;59274;49.874;9.154;2023-06-19T08:59:32;4.75;;;2.50;;
71464;SDS011;59274;49.874;9.154;2023-06-19T09:01:58;6.47;;;3.00;;
71464;SDS011;59274;49.874;9.154;2023-06-19T09:04:24;5.13;;;2.27;;
71464;SDS011;59274;49.874;9.154;2023-06-19T09:07:00;5.20;;;2.55;;
71464;SDS011;59274;49.874;9.154;2023-06-19T09:09:28;5.38;;;2.92;;
71464;SDS011;59274;49.874;9.154;2023-06-19T09:12:00;5.43;;;2.35;;
71464;SDS011;59274;49.874;9.154;2023-06-19T09:16:58;4.45;;;2.30;;
71464;SDS011;59274;49.874;9.154;2023-06-19T09:19:23;7.60;;;2.60;;
71464;SDS011;59274;49.874;9.154;2023-06-19T09:21:49;6.57;;;2.72;;
71464;SDS011;59274;49.874;9.154;2023-06-19T09:24:14;5.10;;;2.53;;
71464;SDS011;59274;49.874;9.154;2023-06-19T09:26:40;4.97;;;2.50;;
71464;SDS011;59274;49.874;9.154;2023-06-19T09:29:12;5.53;;;3.00;;
71464;SDS011;59274;49.874;9.154;2023-06-19T09:31:40;5.65;;;2.88;;
71464;SDS011;59274;49.874;9.154;2023-06-19T09:34:06;5.80;;;3.03;;
71464;SDS011;59274;49.874;9.154;2023-06-19T09:36:32;4.85;;;2.65;;
71464;SDS011;59274;49.874;9.154;2023-06-19T09:38:59;6.35;;;2.70;;
71464;SDS011;59274;49.874;9.154;2023-06-19T09:41:26;5.50;;;2.67;;
71464;SDS011;59274;49.874;9.154;2023-06-19T09:43:54;6.90;;;2.95;;
71464;SDS011;59274;49.874;9.154;2023-06-19T09:46:30;5.20;;;2.47;;
71464;SDS011;59274;49.874;9.154;2023-06-19T09:49:01;5.45;;;2.80;;
71464;SDS011;59274;49.874;9.154;2023-06-19T09:51:35;5.25;;;2.70;;
71464;SDS011;59274;49.874;9.154;2023-06-19T09:54:02;5.95;;;3.10;;
71464;SDS011;59274;49.874;9.154;2023-06-19T09:56:31;5.78;;;2.80;;
71464;SDS011;59274;49.874;9.154;2023-06-19T09:58:57;6.80;;;3.10;;
71464;SDS011;59274;49.874;9.154;2023-06-19T10:01:25;6.05;;;2.88;;
71464;SDS011;59274;49.874;9.154;2023-06-19T10:04:01;5.80;;;3.00;;
71464;SDS011;59274;49.874;9.154;2023-06-19T10:06:28;5.40;;;3.00;;
71464;SDS011;59274;49.874;9.154;2023-06-19T10:08:55;5.57;;;2.90;;
71464;SDS011;59274;49.874;9.154;2023-06-19T10:11:20;6.40;;;2.87;;
71464;SDS011;59274;49.874;9.154;2023-06-19T10:13:45;6.77;;;3.17;;
71464;SDS011;59274;49.874;9.154;2023-06-19T10:16:20;6.77;;;3.13;;
71464;SDS011;59274;49.874;9.154;2023-06-19T10:18:47;5.60;;;3.10;;
71464;SDS011;59274;49.874;9.154;2023-06-19T10:21:16;6.85;;;3.25;;
71464;SDS011;59274;49.874;9.154;2023-06-19T10:23:42;6.80;;;3.35;;
71464;SDS011;59274;49.874;9.154;2023-06-19T10:26:08;5.60;;;3.10;;
71464;SDS011;59274;49.874;9.154;2023-06-19T10:28:45;6.20;;;3.28;;
71464;SDS011;59274;49.874;9.154;2023-06-19T10:31:11;6.10;;;3.15;;
71464;SDS011;59274;49.874;9.154;2023-06-19T10:33:37;7.22;;;3.65;;
71464;SDS011;59274;49.874;9.154;2023-06-19T10:36:15;7.15;;;3.35;;
71464;SDS011;59274;49.874;9.154;2023-06-19T10:38:42;5.80;;;3.28;;
71464;SDS011;59274;49.874;9.154;2023-06-19T10:41:18;6.20;;;3.58;;
71464;SDS011;59274;49.874;9.154;2023-06-19T10:43:58;6.28;;;3.50;;
71464;SDS011;59274;49.874;9.154;2023-06-19T10:46:32;6.38;;;3.47;;
71464;SDS011;59274;49.874;9.154;2023-06-19T10:49:00;6.75;;;3.72;;
71464;SDS011;59274;49.874;9.154;2023-06-19T10:51:29;7.15;;;3.35;;
71464;SDS011;59274;49.874;9.154;2023-06-19T10:53:55;7.45;;;3.67;;
71464;SDS011;59274;49.874;9.154;2023-06-19T10:56:21;6.20;;;3.55;;
71464;SDS011;59274;49.874;9.154;2023-06-19T10:58:48;7.50;;;3.47;;
71464;SDS011;59274;49.874;9.154;2023-06-19T11:01:13;6.10;;;3.05;;
71464;SDS011;59274;49.874;9.154;2023-06-19T11:03:39;5.50;;;3.17;;
71464;SDS011;59274;49.874;9.154;2023-06-19T11:06:04;6.35;;;3.60;;
71464;SDS011;59274;49.874;9.154;2023-06-19T11:08:30;5.95;;;3.00;;
71464;SDS011;59274;49.874;9.154;2023-06-19T11:10:55;6.00;;;3.27;;
71464;SDS011;59274;49.874;9.154;2023-06-19T11:13:21;5.77;;;2.97;;
71464;SDS011;59274;49.874;9.154;2023-06-19T11:15:50;6.35;;;3.15;;
71464;SDS011;59274;49.874;9.154;2023-06-19T11:18:16;6.63;;;3.40;;
71464;SDS011;59274;49.874;9.154;2023-06-19T11:20:46;5.75;;;3.08;;
71464;SDS011;59274;49.874;9.154;2023-06-19T11:23:25;5.63;;;3.10;;
71464;SDS011;59274;49.874;9.154;2023-06-19T11:25:54;6.90;;;3.55;;
71464;SDS011;59274;49.874;9.154;2023-06-19T11:28:27;6.68;;;3.63;;
71464;SDS011;59274;49.874;9.154;2023-06-19T11:30:57;7.07;;;3.30;;
71464;SDS011;59274;49.874;9.154;2023-06-19T11:33:24;5.57;;;3.20;;
71464;SDS011;59274;49.874;9.154;2023-06-19T11:35:50;5.63;;;3.03;;
71464;SDS011;59274;49.874;9.154;2023-06-19T11:38:20;7.38;;;3.55;;
71464;SDS011;59274;49.874;9.154;2023-06-19T11:40:48;5.93;;;3.33;;
71464;SDS011;59274;49.874;9.154;2023-06-19T11:43:24;6.70;;;3.47;;
71464;SDS011;59274;49.874;9.154;2023-06-19T11:45:50;7.20;;;3.40;;
71464;SDS011;59274;49.874;9.154;2023-06-19T11:48:26;6.40;;;3.80;;
71464;SDS011;59274;49.874;9.154;2023-06-19T11:50:52;5.80;;;3.58;;
71464;SDS011;59274;49.874;9.154;2023-06-19T11:53:19;5.65;;;3.45;;
71464;SDS011;59274;49.874;9.154;2023-06-19T11:55:45;6.27;;;3.53;;
71464;SDS011;59274;49.874;9.154;2023-06-19T11:58:11;5.53;;;3.10;;
71464;SDS011;59274;49.874;9.154;2023-06-19T12:00:36;6.03;;;3.23;;
71464;SDS011;59274;49.874;9.154;2023-06-19T12:03:02;5.63;;;3.28;;
71464;SDS011;59274;49.874;9.154;2023-06-19T12:05:28;5.10;;;3.05;;
71464;SDS011;59274;49.874;9.154;2023-06-19T12:07:54;6.90;;;3.73;;
71464;SDS011;59274;49.874;9.154;2023-06-19T12:10:19;6.13;;;3.60;;
71464;SDS011;59274;49.874;9.154;2023-06-19T12:12:45;9.00;;;3.33;;
71464;SDS011;59274;49.874;9.154;2023-06-19T12:15:10;6.00;;;3.35;;
71464;SDS011;59274;49.874;9.154;2023-06-19T12:17:36;5.63;;;2.97;;
71464;SDS011;59274;49.874;9.154;2023-06-19T12:20:02;6.00;;;3.22;;
71464;SDS011;59274;49.874;9.154;2023-06-19T12:22:31;7.20;;;3.63;;
71464;SDS011;59274;49.874;9.154;2023-06-19T12:24:57;6.20;;;3.42;;
71464;SDS011;59274;49.874;9.154;2023-06-19T12:27:23;6.00;;;3.37;;
71464;SDS011;59274;49.874;9.154;2023-06-19T12:29:48;6.63;;;3.20;;
71464;SDS011;59274;49.874;9.154;2023-06-19T12:32:13;7.20;;;3.77;;
71464;SDS011;59274;49.874;9.154;2023-06-19T12:34:39;6.60;;;3.23;;
71464;SDS011;59274;49.874;9.154;2023-06-19T12:37:05;5.90;;;3.50;;
71464;SDS011;59274;49.874;9.154;2023-06-19T12:39:32;6.20;;;3.33;;
71464;SDS011;59274;49.874;9.154;2023-06-19T12:41:57;7.03;;;3.77;;
71464;SDS011;59274;49.874;9.154;2023-06-19T12:44:23;6.13;;;3.40;;
71464;SDS011;59274;49.874;9.154;2023-06-19T12:46:49;5.60;;;3.22;;
71464;SDS011;59274;49.874;9.154;2023-06-19T12:49:15;5.87;;;3.00;;
71464;SDS011;59274;49.874;9.154;2023-06-19T12:51:40;7.70;;;3.77;;
71464;SDS011;59274;49.874;9.154;2023-06-19T12:54:06;5.80;;;3.10;;
71464;SDS011;59274;49.874;9.154;2023-06-19T12:56:31;5.20;;;3.17;;
71464;SDS011;59274;49.874;9.154;2023-06-19T12:58:56;5.53;;;3.20;;
71464;SDS011;59274;49.874;9.154;2023-06-19T13:01:22;5.57;;;3.00;;
71464;SDS011;59274;49.874;9.154;2023-06-19T13:03:47;7.23;;;3.40;;
71464;SDS011;59274;49.874;9.154;2023-06-19T13:06:13;6.13;;;3.30;;
71464;SDS011;59274;49.874;9.154;2023-06-19T13:08:38;5.60;;;3.00;;
71464;SDS011;59274;49.874;9.154;2023-06-19T13:11:03;7.43;;;3.10;;
71464;SDS011;59274;49.874;9.154;2023-06-19T13:13:29;7.03;;;3.43;;
71464;SDS011;59274;49.874;9.154;2023-06-19T13:15:54;6.10;;;3.27;;
71464;SDS011;59274;49.874;9.154;2023-06-19T13:18:20;5.28;;;3.08;;
71464;SDS011;59274;49.874;9.154;2023-06-19T13:20:45;6.33;;;3.03;;
71464;SDS011;59274;49.874;9.154;2023-06-19T13:23:13;6.22;;;3.25;;
71464;SDS011;59274;49.874;9.154;2023-06-19T13:25:39;6.00;;;3.17;;
71464;SDS011;59274;49.874;9.154;2023-06-19T13:28:04;5.15;;;2.97;;
71464;SDS011;59274;49.874;9.154;2023-06-19T13:30:30;4.97;;;3.10;;
71464;SDS011;59274;49.874;9.154;2023-06-19T13:32:58;6.32;;;3.63;;
71464;SDS011;59274;49.874;9.154;2023-06-19T13:35:23;6.00;;;3.40;;
71464;SDS011;59274;49.874;9.154;2023-06-19T13:37:49;5.90;;;3.30;;
71464;SDS011;59274;49.874;9.154;2023-06-19T13:40:14;6.22;;;3.40;;
71464;SDS011;59274;49.874;9.154;2023-06-19T13:42:39;6.10;;;3.33;;
71464;SDS011;59274;49.874;9.154;2023-06-19T13:45:05;6.77;;;3.60;;
71464;SDS011;59274;49.874;9.154;2023-06-19T13:47:31;5.32;;;3.40;;
71464;SDS011;59274;49.874;9.154;2023-06-19T13:49:56;6.93;;;3.30;;
71464;SDS011;59274;49.874;9.154;2023-06-19T13:52:22;5.60;;;3.37;;
71464;SDS011;59274;49.874;9.154;2023-06-19T13:54:48;6.55;;;3.30;;
71464;SDS011;59274;49.874;9.154;2023-06-19T13:57:14;5.65;;;3.47;;
71464;SDS011;59274;49.874;9.154;2023-06-19T13:59:39;6.70;;;3.80;;
71464;SDS011;59274;49.874;9.154;2023-06-19T14:02:05;6.53;;;3.40;;
71464;SDS011;59274;49.874;9.154;2023-06-19T14:04:35;5.63;;;3.20;;
71464;SDS011;59274;49.874;9.154;2023-06-19T14:07:01;5.60;;;3.13;;
71464;SDS011;59274;49.874;9.154;2023-06-19T14:09:26;5.28;;;3.17;;
71464;SDS011;59274;49.874;9.154;2023-06-19T14:11:51;6.17;;;3.47;;
71464;SDS011;59274;49.874;9.154;2023-06-19T14:14:17;5.03;;;3.17;;
71464;SDS011;59274;49.874;9.154;2023-06-19T14:16:42;5.77;;;3.47;;
71464;SDS011;59274;49.874;9.154;2023-06-19T14:19:07;5.83;;;3.70;;
71464;SDS011;59274;49.874;9.154;2023-06-19T14:21:33;5.68;;;3.30;;
71464;SDS011;59274;49.874;9.154;2023-06-19T14:23:58;6.33;;;3.63;;
71464;SDS011;59274;49.874;9.154;2023-06-19T14:26:24;5.33;;;3.40;;
71464;SDS011;59274;49.874;9.154;2023-06-19T14:28:49;5.53;;;3.60;;
71464;SDS011;59274;49.874;9.154;2023-06-19T14:31:20;5.75;;;3.33;;
71464;SDS011;59274;49.874;9.154;2023-06-19T14:33:48;6.53;;;3.43;;
71464;SDS011;59274;49.874;9.154;2023-06-19T14:36:14;5.13;;;3.00;;
71464;SDS011;59274;49.874;9.154;2023-06-19T14:38:39;7.13;;;3.60;;
71464;SDS011;59274;49.874;9.154;2023-06-19T14:41:04;6.07;;;3.67;;
71464;SDS011;59274;49.874;9.154;2023-06-19T14:43:30;5.93;;;3.43;;
71464;SDS011;59274;49.874;9.154;2023-06-19T14:45:57;5.18;;;3.20;;
71464;SDS011;59274;49.874;9.154;2023-06-19T14:48:22;5.37;;;3.20;;
71464;SDS011;59274;49.874;9.154;2023-06-19T14:50:48;4.90;;;3.00;;